Time;durP1;ratioP1;P1;durP2;ratioP2;P2;SDS_P1;SDS_P2;PMS_P1;PMS_P2;Temp;Humidity;BMP_temperature;BMP_pressure;BME280_temperature;BME280_humidity;BME280_pressure;Samples;Min_cycle;Max_cycle;Signal;HPM_P1;HPM_P2
2020/12/23 00:00:06;;;;;;;1.48;1.38;;;14.30;82.90;;;;;;5001630;28;20234;-85
2020/12/23 00:02:33;;;;;;;1.35;1.25;;;14.40;82.50;;;;;;5002617;28;20222;-82
2020/12/23 00:05:00;;;;;;;3.30;1.23;;;14.40;81.60;;;;;;5002801;28;20639;-84
2020/12/23 00:07:26;;;;;;;1.08;1.05;;;14.40;82.20;;;;;;5004704;28;20238;-84
2020/12/23 00:09:52;;;;;;;1.50;1.40;;;14.30;81.40;;;;;;5009074;28;20240;-82
2020/12/23 00:12:19;;;;;;;1.38;1.13;;;14.30;81.70;;;;;;5008318;28;20238;-82
2020/12/23 00:14:45;;;;;;;1.20;1.10;;;14.30;82.10;;;;;;5012040;28;20210;-83
2020/12/23 00:17:12;;;;;;;1.15;1.10;;;14.30;81.60;;;;;;5014130;28;20269;-81
2020/12/23 00:19:39;;;;;;;1.17;1.08;;;14.40;80.30;;;;;;5014193;28;20215;-81
2020/12/23 00:22:06;;;;;;;1.48;1.38;;;14.30;81.10;;;;;;5013784;28;20245;-82
2020/12/23 00:24:32;;;;;;;2.55;1.20;;;14.30;80.20;;;;;;5012750;28;20207;-83
2020/12/23 00:27:02;;;;;;;2.55;1.30;;;14.40;80.30;;;;;;5007723;28;20292;-83
2020/12/23 00:29:28;;;;;;;1.15;1.05;;;14.30;80.20;;;;;;5012005;28;20222;-84
2020/12/23 00:31:56;;;;;;;1.75;1.05;;;14.30;80.20;;;;;;5006409;28;20203;-83
2020/12/23 00:34:23;;;;;;;0.90;0.90;;;14.30;80.20;;;;;;5007301;28;20226;-82
2020/12/23 00:36:55;;;;;;;1.10;1.10;;;14.20;80.10;;;;;;5006521;28;20222;-83
2020/12/23 00:39:23;;;;;;;1.55;1.40;;;14.20;80.30;;;;;;5009098;28;20203;-83
2020/12/23 00:41:50;;;;;;;1.80;1.48;;;14.20;80.10;;;;;;5010794;28;20218;-84
2020/12/23 00:44:17;;;;;;;2.45;1.15;;;14.30;80.20;;;;;;5011315;28;20250;-83
2020/12/23 00:46:45;;;;;;;1.27;1.20;;;14.20;80.10;;;;;;5010511;28;20214;-83
2020/12/23 00:49:12;;;;;;;2.17;1.38;;;14.20;80.30;;;;;;5014610;28;20196;-83
2020/12/23 00:51:38;;;;;;;1.10;1.10;;;14.20;80.10;;;;;;5011643;28;20234;-83
2020/12/23 00:54:06;;;;;;;1.20;1.10;;;14.20;80.80;;;;;;5015852;28;20226;-82
2020/12/23 00:56:33;;;;;;;2.55;1.58;;;14.20;81.20;;;;;;5016031;28;20207;-83
2020/12/23 00:59:00;;;;;;;1.38;1.27;;;14.20;80.10;;;;;;5016606;28;20214;-82
2020/12/23 01:01:27;;;;;;;1.10;1.00;;;14.20;80.10;;;;;;5015672;28;20218;-82
2020/12/23 01:03:54;;;;;;;1.02;1.02;;;14.20;80.10;;;;;;5015863;28;20214;-82
2020/12/23 01:06:20;;;;;;;1.75;1.17;;;14.20;80.40;;;;;;5015857;28;20211;-81
2020/12/23 01:08:47;;;;;;;3.35;1.60;;;14.10;81.10;;;;;;5015534;28;20230;-82
2020/12/23 01:11:14;;;;;;;1.70;1.20;;;14.20;81.00;;;;;;5016609;28;20265;-82
2020/12/23 01:13:41;;;;;;;1.88;1.10;;;14.10;80.60;;;;;;5015625;28;20243;-83
2020/12/23 01:16:08;;;;;;;1.58;1.13;;;14.10;80.70;;;;;;5014795;28;20205;-82
2020/12/23 01:18:35;;;;;;;1.58;1.45;;;14.10;80.60;;;;;;5014223;28;20258;-82
2020/12/23 01:21:01;;;;;;;1.23;1.00;;;14.00;81.20;;;;;;5008458;28;20284;-82
2020/12/23 01:23:28;;;;;;;1.55;1.45;;;14.00;81.40;;;;;;5007049;28;20223;-82
2020/12/23 01:25:55;;;;;;;1.55;1.45;;;14.10;80.50;;;;;;5008916;28;20230;-82
2020/12/23 01:28:23;;;;;;;1.10;1.00;;;14.00;80.90;;;;;;5008835;28;20202;-81
2020/12/23 01:30:49;;;;;;;1.15;1.02;;;14.00;81.10;;;;;;5008006;28;20230;-82
2020/12/23 01:33:16;;;;;;;1.10;1.00;;;14.10;80.60;;;;;;5010249;28;20234;-81
2020/12/23 01:35:44;;;;;;;1.50;1.40;;;14.10;80.00;;;;;;5008855;28;20245;-82
2020/12/23 01:38:10;;;;;;;1.20;1.10;;;14.20;80.30;;;;;;5005476;28;20218;-83
2020/12/23 01:40:37;;;;;;;1.20;1.10;;;14.10;80.90;;;;;;5007998;28;20202;-81
2020/12/23 01:43:06;;;;;;;1.85;1.17;;;14.10;80.90;;;;;;5007006;28;20246;-82
2020/12/23 01:45:34;;;;;;;1.40;1.30;;;14.00;81.60;;;;;;5003439;28;20226;-81
2020/12/23 01:48:00;;;;;;;1.35;1.25;;;14.00;82.30;;;;;;5003615;28;20306;-81
2020/12/23 01:50:27;;;;;;;2.25;1.33;;;14.00;83.90;;;;;;5005541;28;20234;-82
2020/12/23 01:52:54;;;;;;;1.63;1.52;;;13.90;84.10;;;;;;5006060;28;20227;-82
2020/12/23 01:55:21;;;;;;;1.23;1.10;;;13.90;85.90;;;;;;5006879;28;20221;-81
2020/12/23 01:57:47;;;;;;;2.65;1.30;;;13.80;88.10;;;;;;5005088;28;20239;-81
2020/12/23 02:00:14;;;;;;;1.48;1.00;;;13.70;88.30;;;;;;5010233;28;20222;-83
2020/12/23 02:02:46;;;;;;;1.58;1.10;;;13.70;89.60;;;;;;5012850;28;20233;-82
2020/12/23 02:05:13;;;;;;;1.23;1.10;;;13.60;90.50;;;;;;5016617;28;20204;-83
2020/12/23 02:07:39;;;;;;;9.15;1.70;;;13.50;91.50;;;;;;5018217;28;20218;-83
2020/12/23 02:10:07;;;;;;;1.48;1.10;;;13.40;92.40;;;;;;5015877;28;20253;-82
2020/12/23 02:12:34;;;;;;;1.23;1.10;;;13.40;92.70;;;;;;5016705;28;20298;-84
2020/12/23 02:15:09;;;;;;;1.52;1.30;;;13.40;93.50;;;;;;5017574;28;20214;-83
2020/12/23 02:17:36;;;;;;;1.30;1.20;;;13.40;93.90;;;;;;5016141;28;20201;-83
2020/12/23 02:20:05;;;;;;;1.20;1.10;;;13.40;94.00;;;;;;5015634;28;20221;-82
2020/12/23 02:22:33;;;;;;;1.33;1.23;;;13.30;94.40;;;;;;5013393;28;20253;-83
2020/12/23 02:24:59;;;;;;;1.13;1.13;;;13.30;94.90;;;;;;5010082;28;20249;-83
2020/12/23 02:27:27;;;;;;;0.90;0.88;;;13.30;95.20;;;;;;5009392;28;20251;-84
2020/12/23 02:29:55;;;;;;;4.43;1.05;;;13.30;95.40;;;;;;5009519;28;20217;-82
2020/12/23 02:32:23;;;;;;;1.48;0.98;;;13.30;95.60;;;;;;5014237;28;20226;-83
2020/12/23 02:34:50;;;;;;;1.27;1.20;;;13.30;95.90;;;;;;5016745;28;20233;-83
2020/12/23 02:37:18;;;;;;;1.17;1.17;;;13.30;96.20;;;;;;5014360;28;20206;-82
2020/12/23 02:39:48;;;;;;;4.43;1.40;;;13.30;96.20;;;;;;5017171;28;20211;-83
2020/12/23 02:42:15;;;;;;;1.20;1.10;;;13.30;96.20;;;;;;5016828;28;20229;-83
2020/12/23 02:44:41;;;;;;;1.70;1.30;;;13.30;96.30;;;;;;5017711;28;20201;-84
2020/12/23 02:47:09;;;;;;;1.40;1.30;;;13.30;96.20;;;;;;5017217;28;20193;-83
2020/12/23 02:49:36;;;;;;;0.90;0.90;;;13.30;96.20;;;;;;5017172;28;20226;-83
2020/12/23 02:52:03;;;;;;;2.13;1.45;;;13.30;96.20;;;;;;5012043;28;20656;-82
2020/12/23 02:54:29;;;;;;;1.25;1.15;;;13.30;96.20;;;;;;5005924;28;20202;-82
2020/12/23 02:56:57;;;;;;;3.40;1.50;;;13.20;97.30;;;;;;5004410;28;20206;-83
2020/12/23 02:59:23;;;;;;;2.00;1.30;;;13.10;98.30;;;;;;5002269;28;20249;-82
2020/12/23 03:01:50;;;;;;;1.42;1.33;;;13.00;99.60;;;;;;5004048;28;20213;-83
2020/12/23 03:04:17;;;;;;;1.33;1.10;;;13.00;99.90;;;;;;5010650;28;20218;-81
2020/12/23 03:06:43;;;;;;;1.58;1.48;;;12.90;99.90;;;;;;5012364;28;20216;-82
2020/12/23 03:09:11;;;;;;;1.42;1.33;;;12.90;99.90;;;;;;5000095;28;20574;-82
2020/12/23 03:11:41;;;;;;;1.65;1.55;;;12.90;99.90;;;;;;5013552;28;20264;-83
2020/12/23 03:14:09;;;;;;;1.50;1.40;;;12.90;99.90;;;;;;5004247;28;20233;-82
2020/12/23 03:16:36;;;;;;;1.98;1.40;;;12.90;99.90;;;;;;5001499;28;20641;-83
2020/12/23 03:19:04;;;;;;;1.60;1.50;;;12.80;99.90;;;;;;5000821;28;20210;-82
2020/12/23 03:21:30;;;;;;;1.80;1.60;;;12.80;99.90;;;;;;5000970;28;20293;-82
2020/12/23 03:23:57;;;;;;;1.45;1.35;;;12.80;99.90;;;;;;5001602;28;20253;-82
2020/12/23 03:26:23;;;;;;;1.48;1.38;;;12.80;99.90;;;;;;5001878;28;20730;-82
2020/12/23 03:28:50;;;;;;;1.95;1.80;;;12.80;99.90;;;;;;5005581;28;20217;-83
2020/12/23 03:31:18;;;;;;;1.60;1.50;;;12.70;99.90;;;;;;5011402;28;20224;-84
2020/12/23 03:33:44;;;;;;;1.52;1.45;;;12.70;99.90;;;;;;5016725;28;20229;-84
2020/12/23 03:36:11;;;;;;;1.83;1.73;;;12.70;99.90;;;;;;5015869;28;20198;-85
2020/12/23 03:38:37;;;;;;;1.65;1.55;;;12.70;99.90;;;;;;5014314;28;20246;-83
2020/12/23 03:41:04;;;;;;;1.90;1.80;;;12.70;99.90;;;;;;5005414;28;20229;-83
2020/12/23 03:43:31;;;;;;;1.40;1.40;;;12.70;99.90;;;;;;5004858;28;20248;-82
2020/12/23 03:45:57;;;;;;;2.10;1.40;;;12.70;99.90;;;;;;5016020;28;20207;-83
2020/12/23 03:48:25;;;;;;;3.17;2.00;;;12.70;99.90;;;;;;5016538;28;20210;-83
2020/12/23 03:50:51;;;;;;;2.00;1.55;;;12.70;99.90;;;;;;5016710;28;20218;-82
2020/12/23 03:53:17;;;;;;;1.88;1.77;;;12.70;99.90;;;;;;5016004;28;20218;-83
2020/12/23 03:55:44;;;;;;;1.90;1.80;;;12.70;99.90;;;;;;5014995;28;20213;-83
2020/12/23 03:58:10;;;;;;;1.90;1.80;;;12.70;99.90;;;;;;5003515;28;20217;-82
2020/12/23 04:00:37;;;;;;;1.70;1.60;;;12.70;99.90;;;;;;4999052;28;20206;-82
2020/12/23 04:03:03;;;;;;;1.92;1.83;;;12.60;99.90;;;;;;4997597;28;20275;-83
2020/12/23 04:05:30;;;;;;;2.33;1.80;;;12.70;99.90;;;;;;4997311;28;20305;-83
2020/12/23 04:07:57;;;;;;;2.75;1.70;;;12.70;99.90;;;;;;4996700;28;20273;-83
2020/12/23 04:10:23;;;;;;;2.05;1.85;;;12.70;99.90;;;;;;4997556;28;20256;-82
2020/12/23 04:12:50;;;;;;;1.90;1.80;;;12.60;99.90;;;;;;4997443;28;20250;-82
2020/12/23 04:15:16;;;;;;;1.92;1.73;;;12.70;99.90;;;;;;4998661;28;20762;-83
2020/12/23 04:17:43;;;;;;;4.88;2.00;;;12.70;99.90;;;;;;5000587;28;20206;-83
2020/12/23 04:20:09;;;;;;;1.63;1.52;;;12.70;99.90;;;;;;4998888;28;20268;-82
2020/12/23 04:22:37;;;;;;;1.90;1.55;;;12.70;99.90;;;;;;4999889;28;20217;-83
2020/12/23 04:25:05;;;;;;;2.72;1.50;;;12.70;99.90;;;;;;4998593;28;20634;-82
2020/12/23 04:27:32;;;;;;;2.92;2.15;;;12.70;99.90;;;;;;5003633;28;20240;-82
2020/12/23 04:29:59;;;;;;;2.10;1.90;;;12.60;99.90;;;;;;5006948;28;20218;-82
2020/12/23 04:32:25;;;;;;;1.75;1.65;;;12.70;99.90;;;;;;5002416;28;20253;-82
2020/12/23 04:34:52;;;;;;;2.33;1.65;;;12.60;99.90;;;;;;4997215;28;20734;-81
2020/12/23 04:37:19;;;;;;;2.13;2.03;;;12.70;99.90;;;;;;4995790;28;20232;-82
2020/12/23 04:39:46;;;;;;;2.20;2.10;;;12.70;99.90;;;;;;5005812;28;20230;-82
2020/12/23 04:44:43;;;;;;;2.17;2.08;;;12.70;99.90;;;;;;5004766;28;20562;-83
2020/12/23 04:47:14;;;;;;;2.15;1.95;;;12.70;99.90;;;;;;5008362;28;20209;-83
2020/12/23 04:49:46;;;;;;;2.90;2.60;;;12.70;99.90;;;;;;5017709;28;20272;-83
2020/12/23 04:52:13;;;;;;;3.50;2.90;;;12.60;99.90;;;;;;5020011;28;20234;-83
2020/12/23 04:54:40;;;;;;;4.00;3.33;;;12.60;99.90;;;;;;5019284;28;20249;-83
2020/12/23 04:57:07;;;;;;;5.18;3.45;;;12.60;99.90;;;;;;5014919;28;20217;-83
2020/12/23 04:59:34;;;;;;;4.40;3.90;;;12.60;99.90;;;;;;5015496;28;20293;-82
2020/12/23 05:02:00;;;;;;;5.78;3.80;;;12.70;99.90;;;;;;5016711;28;20217;-83
2020/12/23 05:04:28;;;;;;;4.18;3.40;;;12.60;99.90;;;;;;5015527;28;20222;-83
2020/12/23 05:07:05;;;;;;;3.97;3.60;;;12.50;99.90;;;;;;5017731;28;20194;-82
2020/12/23 05:09:32;;;;;;;6.18;4.50;;;12.50;99.90;;;;;;5018934;28;20204;-81
2020/12/23 05:11:59;;;;;;;3.10;2.80;;;12.50;99.90;;;;;;5014779;28;20673;-83
2020/12/23 05:14:27;;;;;;;3.50;3.08;;;12.50;99.90;;;;;;5008560;28;20301;-83
2020/12/23 05:16:53;;;;;;;3.72;3.20;;;12.50;99.90;;;;;;5007708;28;20273;-83
2020/12/23 05:19:21;;;;;;;2.75;2.55;;;12.50;99.90;;;;;;5011011;28;20218;-82
2020/12/23 05:21:47;;;;;;;3.00;2.70;;;12.50;99.90;;;;;;5017464;28;20289;-83
2020/12/23 05:24:14;;;;;;;6.97;3.25;;;12.50;99.90;;;;;;5018925;28;20225;-82
2020/12/23 05:26:42;;;;;;;3.92;2.75;;;12.50;99.90;;;;;;5007901;28;20315;-82
2020/12/23 05:29:11;;;;;;;4.80;2.90;;;12.50;99.90;;;;;;5007472;28;20210;-82
2020/12/23 05:31:39;;;;;;;4.40;4.00;;;12.40;99.90;;;;;;5008886;28;20233;-83
2020/12/23 05:34:06;;;;;;;3.80;3.13;;;12.40;99.90;;;;;;5009232;28;20237;-83
2020/12/23 05:36:34;;;;;;;3.75;3.05;;;12.40;99.90;;;;;;5009757;28;20282;-83
2020/12/23 05:39:01;;;;;;;3.83;3.10;;;12.40;99.90;;;;;;5008743;28;20228;-82
2020/12/23 05:41:28;;;;;;;3.22;2.70;;;12.40;99.90;;;;;;5011763;28;20241;-83
2020/12/23 05:43:54;;;;;;;2.92;2.70;;;12.40;99.90;;;;;;5015553;28;20229;-82
2020/12/23 05:46:21;;;;;;;2.40;2.20;;;12.40;99.90;;;;;;5018100;28;20204;-83
2020/12/23 05:48:48;;;;;;;3.35;2.80;;;12.40;99.90;;;;;;5018093;28;20456;-83
2020/12/23 05:51:15;;;;;;;4.60;2.63;;;12.40;99.90;;;;;;5018177;28;20254;-83
2020/12/23 05:53:42;;;;;;;2.72;2.53;;;12.30;99.90;;;;;;5016814;28;20231;-83
2020/12/23 05:56:09;;;;;;;4.68;3.10;;;12.40;99.90;;;;;;5017380;28;20252;-84
2020/12/23 05:58:37;;;;;;;3.20;2.90;;;12.40;99.90;;;;;;5016980;28;20194;-84
2020/12/23 06:01:05;;;;;;;2.90;2.60;;;12.40;99.90;;;;;;5018372;28;20194;-82
2020/12/23 06:03:54;;;;;;;5.78;3.55;;;12.40;99.90;;;;;;5018190;28;20220;-83
2020/12/23 06:06:24;;;;;;;3.60;2.85;;;12.30;99.90;;;;;;5018103;28;20197;-83
2020/12/23 06:08:53;;;;;;;4.13;3.65;;;12.30;99.90;;;;;;5018458;28;20189;-82
2020/12/23 06:11:34;;;;;;;3.50;3.20;;;12.30;99.90;;;;;;5013201;28;20248;-83
2020/12/23 06:14:14;;;;;;;3.70;3.10;;;12.30;99.90;;;;;;5008951;28;20264;-83
2020/12/23 06:16:43;;;;;;;4.25;3.50;;;12.30;99.90;;;;;;5007932;28;20201;-83
2020/12/23 06:19:12;;;;;;;5.28;3.10;;;12.30;99.90;;;;;;5009262;28;20225;-82
2020/12/23 06:21:39;;;;;;;5.00;3.38;;;12.40;99.90;;;;;;5011866;28;20719;-84
2020/12/23 06:24:08;;;;;;;4.53;3.85;;;12.30;99.90;;;;;;5016016;28;20289;-83
2020/12/23 06:26:36;;;;;;;5.10;3.05;;;12.40;99.90;;;;;;5017630;28;20199;-82
2020/12/23 06:29:05;;;;;;;3.85;3.55;;;12.40;99.90;;;;;;5017540;28;20209;-80
2020/12/23 06:31:38;;;;;;;4.07;3.67;;;12.30;99.90;;;;;;5017421;28;20221;-83
2020/12/23 06:34:05;;;;;;;4.45;3.30;;;12.30;99.90;;;;;;5017885;28;20237;-82
2020/12/23 06:36:33;;;;;;;3.95;3.53;;;12.40;99.90;;;;;;5017761;28;20226;-82
2020/12/23 06:39:31;;;;;;;4.10;3.70;;;12.50;99.90;;;;;;5018021;28;20186;-84
2020/12/23 06:42:36;;;;;;;3.20;2.97;;;12.50;99.90;;;;;;4985115;28;20229;-83
2020/12/23 06:45:13;;;;;;;3.25;2.95;;;12.40;99.90;;;;;;5015454;28;20234;-83
2020/12/23 06:47:40;;;;;;;3.75;3.35;;;12.40;99.90;;;;;;5016992;28;20228;-83
2020/12/23 06:50:15;;;;;;;5.03;3.60;;;12.50;99.90;;;;;;5016865;28;20194;-82
2020/12/23 06:52:47;;;;;;;4.13;2.65;;;12.50;99.90;;;;;;5016252;28;20226;-83
2020/12/23 06:55:15;;;;;;;3.35;2.92;;;12.50;99.90;;;;;;5014299;28;20214;-82
2020/12/23 06:57:49;;;;;;;3.50;3.05;;;12.50;99.90;;;;;;5011255;28;20210;-83
2020/12/23 07:00:35;;;;;;;4.47;3.40;;;12.50;99.90;;;;;;5014498;28;20270;-83
2020/12/23 07:03:04;;;;;;;3.13;2.92;;;12.50;99.90;;;;;;5016665;28;20218;-83
2020/12/23 07:05:39;;;;;;;5.95;4.07;;;12.60;99.90;;;;;;5016119;28;20229;-82
2020/12/23 07:08:08;;;;;;;3.90;3.60;;;12.60;99.90;;;;;;5016304;28;20274;-83
2020/12/23 07:10:36;;;;;;;7.95;3.70;;;12.50;99.90;;;;;;5016050;28;20253;-82
2020/12/23 07:13:04;;;;;;;7.88;3.60;;;12.50;99.90;;;;;;5017101;28;20230;-81
2020/12/23 07:15:32;;;;;;;4.30;3.88;;;12.40;99.90;;;;;;5016871;28;20213;-84
2020/12/23 07:18:03;;;;;;;4.93;3.90;;;12.50;99.90;;;;;;5016596;28;20198;-83
2020/12/23 07:20:33;;;;;;;4.30;3.90;;;12.40;99.90;;;;;;5016931;28;20257;-83
2020/12/23 07:23:05;;;;;;;4.45;3.65;;;12.40;99.90;;;;;;5017263;28;20245;-82
2020/12/23 07:25:38;;;;;;;4.95;3.90;;;12.40;99.90;;;;;;5017358;28;20233;-83
2020/12/23 07:28:07;;;;;;;3.92;3.25;;;12.50;99.90;;;;;;5016939;28;20194;-82
2020/12/23 07:30:44;;;;;;;4.03;3.72;;;12.50;99.90;;;;;;5017119;28;20213;-83
2020/12/23 07:33:17;;;;;;;7.75;3.97;;;12.40;99.90;;;;;;5016736;28;20242;-83
2020/12/23 07:35:46;;;;;;;4.50;4.10;;;12.30;99.90;;;;;;5016906;28;20201;-82
2020/12/23 07:38:14;;;;;;;6.57;3.80;;;12.40;99.90;;;;;;5016600;28;20233;-83
2020/12/23 07:40:42;;;;;;;4.80;4.10;;;12.40;99.90;;;;;;5016910;28;20197;-84
2020/12/23 07:43:10;;;;;;;5.35;3.70;;;12.50;99.90;;;;;;5016105;28;20237;-82
2020/12/23 07:45:37;;;;;;;4.60;4.20;;;12.40;99.90;;;;;;5015655;28;20206;-83
2020/12/23 07:48:05;;;;;;;3.40;3.10;;;12.50;99.90;;;;;;5014947;28;20245;-83
2020/12/23 07:50:33;;;;;;;3.97;3.50;;;12.40;99.90;;;;;;5016167;28;20217;-82
2020/12/23 07:53:11;;;;;;;4.82;3.65;;;12.50;99.90;;;;;;5016505;28;20233;-83
2020/12/23 07:55:38;;;;;;;3.30;3.00;;;12.50;99.90;;;;;;5016579;28;20210;-86
2020/12/23 07:58:06;;;;;;;4.82;4.25;;;12.60;99.90;;;;;;5016699;28;20217;-85
2020/12/23 08:00:33;;;;;;;3.42;3.03;;;12.60;99.90;;;;;;5016857;28;20202;-85
2020/12/23 08:03:00;;;;;;;4.10;3.20;;;12.70;99.90;;;;;;5015882;28;20218;-84
2020/12/23 08:05:27;;;;;;;3.55;3.00;;;12.70;99.90;;;;;;5013144;28;20274;-83
2020/12/23 08:07:54;;;;;;;3.55;3.03;;;12.70;99.90;;;;;;5011567;28;20306;-84
2020/12/23 08:10:21;;;;;;;2.90;2.70;;;12.60;99.90;;;;;;5007356;28;20216;-85
2020/12/23 08:12:56;;;;;;;3.47;2.75;;;12.70;99.90;;;;;;5012062;28;20265;-85
2020/12/23 08:15:24;;;;;;;3.95;3.20;;;12.70;99.90;;;;;;5004901;28;20214;-84
2020/12/23 08:17:59;;;;;;;4.32;3.67;;;12.80;99.90;;;;;;5013505;28;20202;-87
2020/12/23 08:20:26;;;;;;;3.53;3.20;;;12.70;99.90;;;;;;5015280;28;20425;-83
2020/12/23 08:22:53;;;;;;;3.38;3.08;;;12.80;99.90;;;;;;5019581;28;20241;-88
2020/12/23 08:25:21;;;;;;;3.63;3.13;;;12.80;99.60;;;;;;5019981;28;20198;-83
2020/12/23 08:27:50;;;;;;;5.68;3.00;;;12.80;99.50;;;;;;5018375;28;20210;-82
2020/12/23 08:30:18;;;;;;;3.30;3.00;;;12.80;99.50;;;;;;5018370;28;20194;-82
2020/12/23 08:32:56;;;;;;;3.45;3.15;;;12.90;99.60;;;;;;5014642;28;20246;-84
2020/12/23 08:35:27;;;;;;;6.88;3.88;;;13.00;98.80;;;;;;5009861;28;20244;-83
2020/12/23 08:37:54;;;;;;;3.45;3.15;;;13.00;98.50;;;;;;5018504;28;20190;-84
2020/12/23 08:40:20;;;;;;;5.90;3.63;;;13.00;98.40;;;;;;5019605;28;20198;-82
2020/12/23 08:42:55;;;;;;;4.38;3.70;;;13.00;98.40;;;;;;5011823;28;20243;-86
2020/12/23 08:45:25;;;;;;;4.05;3.65;;;13.10;98.00;;;;;;5006564;28;20296;-83
2020/12/23 08:47:55;;;;;;;7.25;3.80;;;13.20;97.70;;;;;;5011173;28;20225;-84
2020/12/23 08:50:23;;;;;;;4.43;3.25;;;13.20;97.10;;;;;;5006396;28;20226;-82
2020/12/23 08:52:51;;;;;;;3.42;3.00;;;13.20;97.10;;;;;;5006733;28;20230;-83
2020/12/23 08:55:19;;;;;;;3.40;3.10;;;13.20;96.50;;;;;;5006194;28;20242;-83
2020/12/23 08:57:46;;;;;;;3.75;3.03;;;13.20;96.50;;;;;;5008921;28;20214;-81
2020/12/23 09:00:17;;;;;;;3.67;3.38;;;13.20;96.20;;;;;;5016005;28;20206;-83
2020/12/23 09:02:45;;;;;;;3.40;3.10;;;13.20;96.20;;;;;;5010462;28;20241;-83
2020/12/23 09:05:23;;;;;;;3.55;3.25;;;13.40;95.40;;;;;;5003779;28;20234;-83
2020/12/23 09:08:04;;;;;;;3.00;2.70;;;13.50;95.20;;;;;;5004012;28;20215;-83
2020/12/23 09:10:30;;;;;;;3.67;3.10;;;13.50;92.70;;;;;;5004176;28;20191;-82
2020/12/23 09:13:12;;;;;;;5.00;3.20;;;13.60;92.30;;;;;;5009377;28;20238;-82
2020/12/23 09:15:39;;;;;;;4.20;2.95;;;13.60;91.40;;;;;;5004112;28;20276;-84
2020/12/23 09:18:09;;;;;;;4.40;2.92;;;13.60;90.70;;;;;;5006080;28;20217;-83
2020/12/23 09:20:37;;;;;;;3.65;2.65;;;13.60;89.90;;;;;;5017388;28;20202;-82
2020/12/23 09:23:05;;;;;;;1.92;1.80;;;13.70;88.40;;;;;;5019128;28;20225;-82
2020/12/23 09:25:32;;;;;;;4.15;2.45;;;13.90;87.50;;;;;;5019345;28;20191;-82
2020/12/23 09:28:07;;;;;;;3.28;2.45;;;13.90;84.00;;;;;;5019197;28;20215;-83
2020/12/23 09:30:36;;;;;;;5.65;2.58;;;14.10;83.00;;;;;;5018613;28;20230;-84
2020/12/23 09:33:04;;;;;;;2.70;2.30;;;14.10;80.90;;;;;;5006038;28;20249;-83
2020/12/23 09:35:30;;;;;;;2.83;1.75;;;14.20;80.50;;;;;;5004968;28;20280;-83
2020/12/23 09:38:09;;;;;;;5.75;2.38;;;14.40;80.30;;;;;;5005410;28;20215;-82
2020/12/23 09:40:37;;;;;;;2.50;2.30;;;14.40;79.90;;;;;;5006009;28;20203;-83
2020/12/23 09:43:13;;;;;;;3.05;2.28;;;14.40;79.60;;;;;;5005022;28;20354;-82
2020/12/23 09:45:40;;;;;;;2.35;2.15;;;14.50;78.40;;;;;;5005942;28;20218;-83
2020/12/23 09:48:07;;;;;;;1.88;1.70;;;14.60;77.90;;;;;;5013282;28;20214;-83
2020/12/23 09:50:34;;;;;;;5.25;2.35;;;14.50;76.60;;;;;;5018237;28;20206;-83
2020/12/23 09:53:01;;;;;;;2.72;2.28;;;14.60;75.60;;;;;;5014125;28;20315;-82
2020/12/23 09:55:29;;;;;;;3.95;2.38;;;14.80;76.90;;;;;;5006883;28;20277;-83
2020/12/23 09:57:56;;;;;;;6.22;3.70;;;15.00;76.10;;;;;;5006390;28;20629;-83
2020/12/23 10:00:24;;;;;;;6.17;2.57;;;15.10;74.70;;;;;;5007218;28;20401;-83
2020/12/23 10:02:50;;;;;;;4.87;2.70;;;15.10;74.40;;;;;;5008237;28;20508;-83
2020/12/23 10:05:16;;;;;;;3.25;2.13;;;15.20;73.70;;;;;;5006910;28;20458;-84
2020/12/23 10:07:43;;;;;;;4.70;2.60;;;15.30;72.40;;;;;;5006105;28;20215;-83
2020/12/23 10:10:09;;;;;;;3.47;2.50;;;15.40;72.50;;;;;;5006107;28;20240;-83
2020/12/23 10:12:37;;;;;;;3.63;2.45;;;15.20;72.30;;;;;;5005860;28;20235;-84
2020/12/23 10:15:04;;;;;;;3.60;2.30;;;15.10;72.20;;;;;;5007152;28;20276;-83
2020/12/23 10:17:31;;;;;;;4.25;2.45;;;15.10;73.20;;;;;;5007426;28;20458;-84
2020/12/23 10:19:57;;;;;;;2.37;1.87;;;15.10;73.30;;;;;;5010183;28;20208;-85
2020/12/23 10:22:24;;;;;;;2.88;1.98;;;15.20;72.30;;;;;;5009646;28;20454;-83
2020/12/23 10:24:50;;;;;;;3.87;2.63;;;15.40;70.60;;;;;;5008576;28;20234;-84
2020/12/23 10:27:17;;;;;;;1.90;1.70;;;15.50;70.30;;;;;;5008926;28;20463;-82
2020/12/23 10:29:44;;;;;;;2.30;2.10;;;15.40;70.50;;;;;;5009688;28;20196;-84
2020/12/23 10:32:10;;;;;;;2.80;1.20;;;15.30;70.80;;;;;;5010877;28;20223;-84
2020/12/23 10:34:37;;;;;;;2.17;1.90;;;15.30;70.80;;;;;;5012666;28;20207;-83
2020/12/23 10:37:03;;;;;;;4.20;1.60;;;15.40;70.50;;;;;;5016613;28;20447;-83
2020/12/23 10:39:30;;;;;;;1.70;1.20;;;15.30;69.10;;;;;;5016935;28;20442;-84
2020/12/23 10:41:56;;;;;;;1.20;1.10;;;15.40;68.70;;;;;;5017062;28;20453;-85
2020/12/23 10:44:24;;;;;;;1.63;1.27;;;15.50;68.20;;;;;;5096737;23;20507;-87
2020/12/23 10:46:55;;;;;;;2.00;1.07;;;15.50;67.70;;;;;;5048607;28;20467;-85
2020/12/23 10:49:22;;;;;;;1.80;1.10;;;15.50;66.60;;;;;;5043060;28;20442;-85
2020/12/23 10:51:50;;;;;;;1.27;1.13;;;15.50;66.30;;;;;;5043256;28;20924;-83
2020/12/23 10:54:17;;;;;;;1.80;1.50;;;15.60;66.50;;;;;;5029281;28;20465;-86
2020/12/23 10:56:44;;;;;;;2.27;1.70;;;15.60;66.50;;;;;;5024669;28;20211;-84
2020/12/23 10:59:11;;;;;;;1.60;1.50;;;15.70;65.30;;;;;;5025073;28;20523;-84
2020/12/23 11:01:37;;;;;;;4.80;2.23;;;15.90;65.30;;;;;;5025900;28;20446;-85
2020/12/23 11:04:05;;;;;;;3.93;1.43;;;16.00;64.10;;;;;;5030890;28;20519;-83
2020/12/23 11:06:32;;;;;;;3.03;1.00;;;16.00;64.10;;;;;;5035534;28;20479;-83
2020/12/23 11:08:59;;;;;;;1.00;0.93;;;16.10;62.20;;;;;;5030425;28;20462;-85
2020/12/23 11:11:26;;;;;;;1.00;1.00;;;16.20;61.30;;;;;;5026735;28;20511;-84
2020/12/23 11:13:52;;;;;;;2.40;1.30;;;16.20;61.10;;;;;;5032384;28;20470;-85
2020/12/23 11:16:19;;;;;;;0.70;0.70;;;16.20;59.80;;;;;;5033296;28;20927;-84
2020/12/23 11:18:47;;;;;;;2.00;1.00;;;16.20;59.80;;;;;;5033253;28;20459;-86
2020/12/23 11:21:16;;;;;;;1.03;0.93;;;16.20;59.20;;;;;;5031017;28;20460;-86
2020/12/23 11:23:43;;;;;;;2.37;1.33;;;16.10;59.20;;;;;;5026467;28;20485;-85
2020/12/23 11:26:15;;;;;;;2.00;1.03;;;16.10;60.60;;;;;;5022449;28;20462;-83
2020/12/23 11:28:42;;;;;;;2.27;1.20;;;16.00;61.50;;;;;;5022972;28;20519;-83
2020/12/23 11:31:09;;;;;;;1.57;1.07;;;15.80;63.40;;;;;;5022065;28;20482;-85
2020/12/23 11:33:36;;;;;;;1.20;1.10;;;15.70;63.90;;;;;;5022997;28;20433;-84
2020/12/23 11:36:03;;;;;;;1.23;1.13;;;15.70;64.20;;;;;;5025531;28;20202;-86
2020/12/23 11:38:31;;;;;;;1.40;1.15;;;15.70;63.90;;;;;;5034275;28;20442;-86
2020/12/23 11:40:57;;;;;;;2.58;1.10;;;15.60;64.60;;;;;;5032543;28;20214;-83
2020/12/23 11:43:24;;;;;;;3.13;1.20;;;15.60;63.80;;;;;;5029592;28;20226;-86
2020/12/23 11:45:50;;;;;;;2.57;1.27;;;15.60;64.20;;;;;;5030891;28;20484;-85
2020/12/23 11:48:17;;;;;;;1.63;0.90;;;15.60;65.00;;;;;;5030173;28;20441;-85
2020/12/23 11:50:44;;;;;;;1.30;1.20;;;15.50;65.10;;;;;;5027463;28;20229;-85
2020/12/23 11:53:10;;;;;;;1.20;1.10;;;15.50;66.20;;;;;;5029638;28;20482;-86
2020/12/23 11:55:38;;;;;;;1.98;1.42;;;15.50;66.40;;;;;;5033723;28;20430;-84
2020/12/23 11:58:05;;;;;;;1.52;0.85;;;15.40;67.50;;;;;;5033436;28;20211;-84
2020/12/23 12:00:31;;;;;;;5.28;1.30;;;15.40;68.10;;;;;;5029247;28;20230;-85
2020/12/23 12:02:58;;;;;;;7.28;1.50;;;15.40;69.80;;;;;;5034589;28;20211;-84
2020/12/23 12:05:24;;;;;;;1.63;1.40;;;15.40;69.40;;;;;;5035999;28;20194;-85
2020/12/23 12:07:51;;;;;;;1.50;1.40;;;15.40;69.10;;;;;;5034950;28;20449;-85
2020/12/23 12:10:17;;;;;;;3.60;1.50;;;15.50;69.50;;;;;;5032776;28;20976;-83
2020/12/23 12:12:45;;;;;;;1.60;1.43;;;15.60;68.60;;;;;;5035401;28;20479;-87
2020/12/23 12:15:11;;;;;;;1.20;1.10;;;15.60;69.10;;;;;;5034585;28;20459;-85
2020/12/23 12:17:38;;;;;;;1.67;1.20;;;15.70;68.30;;;;;;5026648;28;20440;-85
2020/12/23 12:20:05;;;;;;;4.30;1.20;;;15.70;68.00;;;;;;5027943;28;20497;-85
2020/12/23 12:22:31;;;;;;;1.33;1.23;;;15.70;67.80;;;;;;5026211;28;20504;-86
2020/12/23 12:24:57;;;;;;;1.50;1.27;;;15.60;67.70;;;;;;5027801;28;20438;-85
2020/12/23 12:27:24;;;;;;;2.77;1.70;;;15.60;68.30;;;;;;5026896;28;20484;-87
2020/12/23 12:29:51;;;;;;;1.92;1.65;;;15.60;67.90;;;;;;5031527;28;20567;-84
2020/12/23 12:32:18;;;;;;;1.60;1.17;;;15.60;68.20;;;;;;5036783;28;20214;-83
2020/12/23 12:34:44;;;;;;;1.63;1.00;;;15.60;67.70;;;;;;5036282;28;20500;-84
2020/12/23 12:37:11;;;;;;;1.40;1.27;;;15.70;67.20;;;;;;5035685;28;20501;-84
2020/12/23 12:39:37;;;;;;;1.10;1.00;;;15.80;66.40;;;;;;5033961;28;20465;-84
2020/12/23 12:42:04;;;;;;;1.00;0.90;;;15.80;66.70;;;;;;5036068;28;20446;-85
2020/12/23 12:44:30;;;;;;;1.00;1.00;;;15.80;66.00;;;;;;5035922;28;20458;-84
2020/12/23 12:46:58;;;;;;;1.60;1.40;;;15.80;65.70;;;;;;5035743;28;20199;-85
2020/12/23 12:49:25;;;;;;;1.60;1.40;;;15.80;65.50;;;;;;5036380;28;20461;-84
2020/12/23 12:51:51;;;;;;;2.90;1.50;;;15.90;65.60;;;;;;5035568;28;20214;-86
2020/12/23 12:54:18;;;;;;;1.63;1.40;;;15.80;65.50;;;;;;5035868;28;20472;-85